createdAt,value
2023-07-11T00:02:07.676Z,8.13
2023-07-11T00:05:16.354Z,8.65
2023-07-11T00:08:23.794Z,9.77
2023-07-11T00:11:29.823Z,10.10
2023-07-11T00:14:38.266Z,9.52
2023-07-11T00:17:46.496Z,8.40
2023-07-11T00:20:52.446Z,7.88
2023-07-11T00:24:05.420Z,8.25
2023-07-11T00:27:13.459Z,8.63
2023-07-11T00:30:19.241Z,8.07
2023-07-11T00:33:24.562Z,8.23
2023-07-11T00:36:30.374Z,7.55
2023-07-11T00:39:37.616Z,8.10
2023-07-11T00:42:43.511Z,8.82
2023-07-11T00:46:05.393Z,8.32
2023-07-11T00:49:14.639Z,8.45
2023-07-11T00:52:21.640Z,7.93
2023-07-11T00:55:27.750Z,9.00
2023-07-11T00:58:36.354Z,8.40
2023-07-11T01:01:47.072Z,9.98
2023-07-11T01:04:53.160Z,9.32
2023-07-11T01:08:01.130Z,9.68
2023-07-11T01:11:07.075Z,10.40
2023-07-11T01:14:14.991Z,8.65
2023-07-11T01:17:34.796Z,9.35
2023-07-11T01:20:40.704Z,9.10
2023-07-11T01:23:48.422Z,8.48
2023-07-11T01:26:58.171Z,10.15
2023-07-11T01:30:07.021Z,9.90
2023-07-11T01:33:14.982Z,9.35
2023-07-11T01:36:23.040Z,8.57
2023-07-11T01:39:29.201Z,9.60
2023-07-11T01:42:35.845Z,9.77
2023-07-11T01:45:42.140Z,10.07
2023-07-11T01:48:47.808Z,10.13
2023-07-11T01:52:10.203Z,9.20
2023-07-11T01:55:18.232Z,10.98
2023-07-11T01:58:24.354Z,10.73
2023-07-11T02:01:30.877Z,10.32
2023-07-11T02:04:38.063Z,10.48
2023-07-11T02:07:43.926Z,10.00
2023-07-11T02:10:49.400Z,10.18
2023-07-11T02:13:55.173Z,9.60
2023-07-11T02:17:01.373Z,10.48
2023-07-11T02:20:07.907Z,10.63
2023-07-11T02:23:17.671Z,10.75
2023-07-11T02:26:24.335Z,10.23
2023-07-11T02:29:30.180Z,11.02
2023-07-11T02:32:36.200Z,10.70
2023-07-11T02:35:42.221Z,10.65
2023-07-11T02:38:47.994Z,9.63
2023-07-11T02:41:53.544Z,11.70
2023-07-11T02:44:58.993Z,10.77
2023-07-11T02:48:05.507Z,12.68
2023-07-11T02:51:12.094Z,11.43
2023-07-11T02:54:17.753Z,12.07
2023-07-11T02:57:23.185Z,12.20
2023-07-11T03:00:28.724Z,14.13
2023-07-11T03:03:34.287Z,12.93
2023-07-11T03:06:39.918Z,14.05
2023-07-11T03:09:45.539Z,12.48
2023-07-11T03:12:51.276Z,13.13
2023-07-11T03:16:01.519Z,13.27
2023-07-11T03:19:07.565Z,14.40
2023-07-11T03:22:13.279Z,13.80
2023-07-11T03:25:19.396Z,13.25
2023-07-11T03:28:25.183Z,14.25
2023-07-11T03:31:30.691Z,15.55
2023-07-11T03:34:38.030Z,13.07
2023-07-11T03:37:47.308Z,13.30
2023-07-11T03:40:53.311Z,13.07
2023-07-11T03:43:59.043Z,13.02
2023-07-11T03:47:05.465Z,14.82
2023-07-11T03:50:12.194Z,13.60
2023-07-11T03:53:17.849Z,12.85
2023-07-11T03:56:25.015Z,13.82
2023-07-11T03:59:32.408Z,12.45
2023-07-11T04:02:38.027Z,13.45
2023-07-11T04:05:43.803Z,12.73
2023-07-11T04:08:50.096Z,11.98
2023-07-11T04:11:55.727Z,11.75
2023-07-11T04:15:01.244Z,12.15
2023-07-11T04:18:06.818Z,12.00
2023-07-11T04:21:13.044Z,11.63
2023-07-11T04:24:18.847Z,12.10
2023-07-11T04:27:26.590Z,11.93
2023-07-11T04:30:32.350Z,11.02
2023-07-11T04:33:38.312Z,11.45
2023-07-11T04:36:44.299Z,11.23
2023-07-11T04:39:49.854Z,10.43
2023-07-11T04:42:59.640Z,11.50
2023-07-11T04:46:07.322Z,11.20
2023-07-11T04:49:12.743Z,11.65
2023-07-11T04:52:18.208Z,11.93
2023-07-11T04:55:24.563Z,11.35
2023-07-11T04:58:31.320Z,13.05
2023-07-11T05:01:37.799Z,12.07
2023-07-11T05:04:43.451Z,12.70
2023-07-11T05:07:49.593Z,11.88
2023-07-11T05:11:00.908Z,11.98
2023-07-11T05:14:06.547Z,12.32
2023-07-11T05:17:12.211Z,11.60
2023-07-11T05:20:19.212Z,11.10
2023-07-11T05:23:30.459Z,12.48
2023-07-11T05:26:37.927Z,11.77
2023-07-11T05:29:43.846Z,10.73
2023-07-11T05:32:49.658Z,12.25
2023-07-11T05:36:33.284Z,12.20
2023-07-11T05:39:39.142Z,11.52
2023-07-11T05:42:44.619Z,11.35
2023-07-11T05:45:50.366Z,12.65
2023-07-11T05:48:59.006Z,11.73
2023-07-11T05:52:05.645Z,12.15
2023-07-11T05:55:11.368Z,10.68
2023-07-11T05:58:17.172Z,11.43
2023-07-11T06:01:27.024Z,10.65
2023-07-11T06:04:33.324Z,10.45
2023-07-11T06:07:39.736Z,11.35
2023-07-11T06:10:46.166Z,10.27
2023-07-11T06:13:52.053Z,11.63
2023-07-11T06:16:57.716Z,11.25
2023-07-11T06:20:05.000Z,10.90
2023-07-11T06:23:10.560Z,10.90
2023-07-11T06:26:17.026Z,10.60
2023-07-11T06:29:22.648Z,9.68
2023-07-11T06:32:28.646Z,10.20
2023-07-11T06:35:37.938Z,8.23
2023-07-11T06:38:43.609Z,8.88
2023-07-11T06:41:49.441Z,7.82
2023-07-11T06:45:04.676Z,10.15
2023-07-11T06:48:10.943Z,8.38
2023-07-11T06:51:16.630Z,8.90
2023-07-11T06:54:22.520Z,8.88
2023-07-11T06:57:28.398Z,7.65
2023-07-11T07:00:34.452Z,8.02
2023-07-11T07:03:40.575Z,6.80
2023-07-11T07:06:47.357Z,7.93
2023-07-11T07:09:52.980Z,7.25
2023-07-11T07:12:58.849Z,7.28
2023-07-11T07:16:06.071Z,7.07
2023-07-11T07:19:13.328Z,7.32
2023-07-11T07:22:18.771Z,8.50
2023-07-11T07:25:25.331Z,7.05
2023-07-11T07:28:32.752Z,7.10
2023-07-11T07:31:38.699Z,7.38
2023-07-11T07:34:44.919Z,8.27
2023-07-11T07:37:50.648Z,7.80
2023-07-11T07:40:58.680Z,8.13
2023-07-11T07:44:05.039Z,7.47
2023-07-11T07:47:11.082Z,7.32
2023-07-11T07:50:17.415Z,7.38
2023-07-11T07:53:22.893Z,7.32
2023-07-11T07:56:30.383Z,8.00
2023-07-11T07:59:36.206Z,7.32
2023-07-11T08:02:44.135Z,6.28
2023-07-11T08:05:52.145Z,6.85
2023-07-11T08:09:02.271Z,6.60
2023-07-11T08:12:12.549Z,6.15
2023-07-11T08:15:18.664Z,7.63
2023-07-11T08:18:24.353Z,6.68
2023-07-11T08:21:30.087Z,6.55
2023-07-11T08:24:36.022Z,6.40
2023-07-11T08:27:41.304Z,6.15
2023-07-11T08:30:48.186Z,7.20
2023-07-11T08:33:54.078Z,6.00
2023-07-11T08:36:59.637Z,6.07
2023-07-11T08:40:06.889Z,6.20
2023-07-11T08:43:21.424Z,7.13
2023-07-11T08:46:29.252Z,7.65
2023-07-11T08:49:43.983Z,7.13
2023-07-11T08:52:58.552Z,7.78
2023-07-11T08:56:20.825Z,7.40
2023-07-11T08:59:31.509Z,6.20
2023-07-11T09:02:51.900Z,6.15
2023-07-11T09:09:13.890Z,6.53
2023-07-11T09:12:51.548Z,5.93
2023-07-11T09:16:18.597Z,5.88
2023-07-11T09:19:46.034Z,6.50
2023-07-11T09:23:29.823Z,5.70
2023-07-11T09:26:51.172Z,5.30
2023-07-11T09:29:57.654Z,5.20
2023-07-11T09:33:16.638Z,6.18
2023-07-11T09:36:35.396Z,5.47
2023-07-11T09:39:57.769Z,5.70
2023-07-11T09:43:05.503Z,5.40
2023-07-11T09:46:14.910Z,5.97
2023-07-11T09:49:25.799Z,5.67
2023-07-11T09:52:32.289Z,5.38
2023-07-11T09:55:38.675Z,6.00
2023-07-11T09:58:52.013Z,5.57
2023-07-11T10:02:00.143Z,6.38
2023-07-11T10:05:06.025Z,6.13
2023-07-11T10:08:19.259Z,5.90
2023-07-11T10:11:24.811Z,7.60
2023-07-11T10:14:43.494Z,8.25
2023-07-11T10:17:48.973Z,6.68
2023-07-11T10:21:02.523Z,6.28
2023-07-11T10:24:17.444Z,6.70
2023-07-11T10:27:31.249Z,6.80
2023-07-11T10:30:40.041Z,6.85
2023-07-11T10:34:00.753Z,7.05
2023-07-11T10:37:14.259Z,6.50
2023-07-11T10:40:37.733Z,7.20
2023-07-11T10:43:43.901Z,7.35
2023-07-11T10:46:53.251Z,6.07
2023-07-11T10:50:08.432Z,5.60
2023-07-11T10:53:38.130Z,5.07
2023-07-11T10:56:50.195Z,6.32
2023-07-11T10:59:55.526Z,5.90
2023-07-11T11:03:13.865Z,5.22
2023-07-11T11:06:32.612Z,6.55
2023-07-11T11:09:45.161Z,6.05
2023-07-11T11:13:18.670Z,7.35
2023-07-11T11:16:39.445Z,6.07
2023-07-11T11:20:18.189Z,6.63
2023-07-11T11:23:43.938Z,6.97
2023-07-11T11:27:11.384Z,8.32
2023-07-11T11:30:53.113Z,6.57
2023-07-11T11:34:38.379Z,5.50
2023-07-11T11:38:20.771Z,7.50
2023-07-11T11:41:37.813Z,6.20
2023-07-11T11:51:31.558Z,6.03
2023-07-11T11:54:46.140Z,6.40
2023-07-11T11:57:51.488Z,5.97
2023-07-11T12:00:58.261Z,5.45
2023-07-11T12:04:29.984Z,5.85
2023-07-11T12:07:43.843Z,5.07
2023-07-11T12:11:08.801Z,4.80
2023-07-11T12:14:27.100Z,4.68
2023-07-11T12:17:35.524Z,4.82
2023-07-11T12:20:40.906Z,4.60
2023-07-11T12:27:10.583Z,4.60
2023-07-11T12:30:15.640Z,4.90
2023-07-11T12:33:35.920Z,4.40
2023-07-11T12:36:41.361Z,4.78
2023-07-11T12:40:14.220Z,5.05
2023-07-11T12:43:31.944Z,4.60
2023-07-11T12:46:38.243Z,4.90
2023-07-11T12:49:48.546Z,5.30
2023-07-11T12:53:02.444Z,4.38
2023-07-11T12:56:15.320Z,4.15
2023-07-11T12:59:32.000Z,4.45
2023-07-11T13:02:37.308Z,4.35
2023-07-11T13:05:42.663Z,3.85
2023-07-11T13:08:48.448Z,3.72
2023-07-11T13:11:54.845Z,4.10
2023-07-11T13:15:26.124Z,3.88
2023-07-11T13:18:35.827Z,4.10
2023-07-11T13:21:40.852Z,3.85
2023-07-11T13:24:46.340Z,4.18
2023-07-11T13:27:53.157Z,4.85
2023-07-11T13:31:02.428Z,4.55
2023-07-11T13:34:17.014Z,4.30
2023-07-11T13:37:26.103Z,4.57
2023-07-11T13:40:37.584Z,4.07
2023-07-11T13:43:49.717Z,4.50
2023-07-11T13:46:55.642Z,4.15
2023-07-11T13:50:15.663Z,4.18
2023-07-11T13:53:21.309Z,4.35
2023-07-11T13:56:27.328Z,4.28
2023-07-11T14:02:43.591Z,4.15
2023-07-11T14:05:54.864Z,4.57
2023-07-11T14:09:01.908Z,5.75
2023-07-11T14:12:12.637Z,4.05
2023-07-11T14:15:24.911Z,5.78
2023-07-11T14:18:30.462Z,4.25
2023-07-11T14:21:36.072Z,5.65
2023-07-11T14:24:45.383Z,4.15
2023-07-11T14:27:54.133Z,4.13
2023-07-11T14:31:09.533Z,4.20
2023-07-11T14:34:27.777Z,4.13
2023-07-11T14:37:33.233Z,5.05
2023-07-11T14:40:38.784Z,4.75
2023-07-11T14:43:44.361Z,4.57
2023-07-11T14:46:52.009Z,4.10
2023-07-11T14:49:59.074Z,4.07
2023-07-11T14:53:04.642Z,5.97
2023-07-11T14:59:30.835Z,4.53
2023-07-11T15:02:38.077Z,4.60
2023-07-11T15:12:06.298Z,4.47
2023-07-11T15:15:25.326Z,4.35
2023-07-11T15:18:31.427Z,4.70
2023-07-11T15:21:36.861Z,4.28
2023-07-11T15:24:45.252Z,4.70
2023-07-11T15:27:51.110Z,5.43
2023-07-11T15:30:59.670Z,5.93
2023-07-11T15:34:11.952Z,4.30
2023-07-11T15:37:18.016Z,3.78
2023-07-11T15:40:26.543Z,4.47
2023-07-11T15:43:42.488Z,4.77
2023-07-11T15:46:48.297Z,5.15
2023-07-11T15:49:53.665Z,5.50
2023-07-11T15:53:00.831Z,4.47
2023-07-11T15:56:06.549Z,5.13
2023-07-11T15:59:21.416Z,4.32
2023-07-11T16:02:27.314Z,4.57
2023-07-11T16:05:37.643Z,4.45
2023-07-11T16:08:44.453Z,4.55
2023-07-11T16:11:51.218Z,4.47
2023-07-11T16:14:57.044Z,3.85
2023-07-11T16:18:02.972Z,4.68
2023-07-11T16:21:15.481Z,4.65
2023-07-11T16:24:24.962Z,4.45
2023-07-11T16:27:31.092Z,5.43
2023-07-11T16:30:36.617Z,5.22
2023-07-11T16:33:43.201Z,6.07
2023-07-11T16:36:52.285Z,4.65
2023-07-11T16:39:58.304Z,4.82
2023-07-11T16:43:05.969Z,4.55
2023-07-11T16:46:19.855Z,4.90
2023-07-11T16:49:25.667Z,4.05
2023-07-11T16:52:31.619Z,5.45
2023-07-11T16:55:37.257Z,4.70
2023-07-11T16:58:44.379Z,4.70
2023-07-11T17:01:52.393Z,4.13
2023-07-11T17:04:57.975Z,5.35
2023-07-11T17:08:21.332Z,4.70
2023-07-11T17:11:27.928Z,4.65
2023-07-11T17:14:33.670Z,4.47
2023-07-11T17:17:39.529Z,4.63
2023-07-11T17:20:45.765Z,5.25
2023-07-11T17:23:51.108Z,4.50
2023-07-11T17:26:59.940Z,5.50
2023-07-11T17:30:13.729Z,5.00
2023-07-11T17:33:21.919Z,5.07
2023-07-11T17:36:27.564Z,4.60
2023-07-11T17:39:33.440Z,5.18
2023-07-11T17:42:38.916Z,4.40
2023-07-11T17:46:00.560Z,5.97
2023-07-11T17:49:11.640Z,5.43
2023-07-11T17:52:24.031Z,5.22
2023-07-11T17:55:30.959Z,4.95
2023-07-11T17:58:37.187Z,4.63
2023-07-11T18:01:43.221Z,4.45
2023-07-11T18:04:51.695Z,6.30
2023-07-11T18:07:56.936Z,6.53
2023-07-11T18:11:02.406Z,5.13
2023-07-11T18:14:07.558Z,4.80
2023-07-11T18:17:25.134Z,4.90
2023-07-11T18:20:32.897Z,5.80
2023-07-11T18:23:38.791Z,5.93
2023-07-11T18:26:44.630Z,5.20
2023-07-11T18:29:50.170Z,5.30
2023-07-11T18:32:56.302Z,4.40
2023-07-11T18:36:01.812Z,5.20
2023-07-11T18:39:07.120Z,5.72
2023-07-11T18:42:24.472Z,4.88
2023-07-11T18:45:30.298Z,4.30
2023-07-11T18:48:36.080Z,4.57
2023-07-11T18:51:41.581Z,4.63
2023-07-11T18:54:47.332Z,5.35
2023-07-11T18:57:54.787Z,4.72
2023-07-11T19:01:00.543Z,4.45
2023-07-11T19:04:06.076Z,4.90
2023-07-11T19:07:21.154Z,4.43
2023-07-11T19:10:29.897Z,5.32
2023-07-11T19:13:35.533Z,4.68
2023-07-11T19:16:41.103Z,4.53
2023-07-11T19:19:48.824Z,4.68
2023-07-11T19:23:02.044Z,4.55
2023-07-11T19:26:18.982Z,4.97
2023-07-11T19:29:24.264Z,3.97
2023-07-11T19:32:29.533Z,4.50
2023-07-11T19:35:37.557Z,4.70
2023-07-11T19:38:44.118Z,4.20
2023-07-11T19:41:49.684Z,4.13
2023-07-11T19:44:55.234Z,5.05
2023-07-11T19:48:00.453Z,4.53
2023-07-11T19:51:06.119Z,5.38
2023-07-11T19:54:11.516Z,5.28
2023-07-11T19:57:20.067Z,5.55
2023-07-11T20:00:30.422Z,5.57
2023-07-11T20:03:36.667Z,5.47
2023-07-11T20:06:42.455Z,5.45
2023-07-11T20:09:48.300Z,5.18
2023-07-11T20:12:54.488Z,5.40
2023-07-11T20:16:24.100Z,5.60
2023-07-11T20:19:30.581Z,4.72
2023-07-11T20:22:36.453Z,5.45
2023-07-11T20:25:43.020Z,6.10
2023-07-11T20:28:49.457Z,5.47
2023-07-11T20:31:55.224Z,5.68
2023-07-11T20:35:00.834Z,5.72
2023-07-11T20:38:06.565Z,5.80
2023-07-11T20:41:14.132Z,5.20
2023-07-11T20:44:19.986Z,6.00
2023-07-11T20:47:25.522Z,6.05
2023-07-11T20:50:37.461Z,5.07
2023-07-11T20:53:43.891Z,5.05
2023-07-11T20:56:49.447Z,5.25
2023-07-11T20:59:55.626Z,5.13
2023-07-11T21:03:01.866Z,5.47
2023-07-11T21:06:24.264Z,6.07
2023-07-11T21:09:30.434Z,5.45
2023-07-11T21:12:36.315Z,5.63
2023-07-11T21:15:50.031Z,5.50
2023-07-11T21:19:00.959Z,5.47
2023-07-11T21:22:11.343Z,5.40
2023-07-11T21:25:18.379Z,5.80
2023-07-11T21:28:30.741Z,5.20
2023-07-11T21:31:37.236Z,5.13
2023-07-11T21:34:45.074Z,5.68
2023-07-11T21:37:51.912Z,5.45
2023-07-11T21:41:00.159Z,5.47
2023-07-11T21:44:05.641Z,5.18
2023-07-11T21:47:11.607Z,5.47
2023-07-11T21:50:17.283Z,6.13
2023-07-11T21:53:25.829Z,5.22
2023-07-11T21:56:31.821Z,6.00
2023-07-11T21:59:37.489Z,5.43
2023-07-11T22:02:43.919Z,5.43
2023-07-11T22:05:55.771Z,5.55
2023-07-11T22:09:01.269Z,5.15
2023-07-11T22:12:06.940Z,5.25
2023-07-11T22:15:12.415Z,5.13
2023-07-11T22:18:26.382Z,5.13
2023-07-11T22:21:32.568Z,4.93
2023-07-11T22:24:39.263Z,5.35
2023-07-11T22:27:45.053Z,5.43
2023-07-11T22:30:52.900Z,5.32
2023-07-11T22:33:58.260Z,4.97
2023-07-11T22:37:03.933Z,5.57
2023-07-11T22:40:15.802Z,5.72
2023-07-11T22:43:25.905Z,5.15
2023-07-11T22:46:31.556Z,6.00
2023-07-11T22:49:37.296Z,6.53
2023-07-11T22:52:42.769Z,5.38
2023-07-11T22:55:54.216Z,5.85
2023-07-11T22:58:59.967Z,5.63
2023-07-11T23:02:08.326Z,8.38
2023-07-11T23:05:14.035Z,7.97
2023-07-11T23:08:25.284Z,7.18
2023-07-11T23:11:31.121Z,7.95
2023-07-11T23:14:36.346Z,8.27
2023-07-11T23:17:42.665Z,9.30
2023-07-11T23:20:57.382Z,9.13
2023-07-11T23:24:03.318Z,8.07
2023-07-11T23:27:10.967Z,8.52
2023-07-11T23:30:40.345Z,8.77
2023-07-11T23:33:45.978Z,9.73
2023-07-11T23:36:51.506Z,8.35
2023-07-11T23:39:57.061Z,8.85
2023-07-11T23:43:05.094Z,9.73
2023-07-11T23:46:29.162Z,10.25
2023-07-11T23:49:34.735Z,10.25
2023-07-11T23:52:40.257Z,9.98
2023-07-11T23:55:51.849Z,10.40
2023-07-11T23:58:58.276Z,9.68
